createdAt,value
2018-08-04T00:03:56.345Z,25.04
2018-08-04T00:06:49.153Z,24.94
2018-08-04T00:09:31.626Z,24.76
2018-08-04T00:12:19.080Z,24.53
2018-08-04T00:14:56.454Z,24.48
2018-08-04T00:17:41.197Z,24.34
2018-08-04T00:20:27.760Z,24.31
2018-08-04T00:23:17.899Z,24.57
2018-08-04T00:26:05.731Z,24.61
2018-08-04T00:28:57.730Z,24.74
2018-08-04T00:31:46.160Z,24.85
2018-08-04T00:36:57.620Z,24.49
2018-08-04T00:39:27.333Z,24.57
2018-08-04T00:41:57.078Z,24.38
2018-08-04T00:44:26.586Z,24.32
2018-08-04T00:46:56.663Z,24.57
2018-08-04T00:49:26.415Z,24.35
2018-08-04T00:51:56.890Z,24.16
2018-08-04T00:54:26.676Z,24.24
2018-08-04T00:56:56.148Z,24.32
2018-08-04T00:59:25.987Z,24.50
2018-08-04T01:01:56.325Z,24.54
2018-08-04T01:04:26.181Z,24.51
2018-08-04T01:06:57.129Z,24.51
2018-08-04T01:09:27.198Z,24.32
2018-08-04T01:11:56.599Z,24.27
2018-08-04T01:14:26.710Z,24.18
2018-08-04T01:16:57.315Z,24.23
2018-08-04T01:19:27.098Z,24.12
2018-08-04T01:21:56.913Z,24.20
2018-08-04T01:24:27.208Z,24.22
2018-08-04T01:26:57.050Z,24.26
2018-08-04T01:29:27.553Z,24.00
2018-08-04T01:31:57.260Z,23.94
2018-08-04T01:34:26.754Z,24.10
2018-08-04T01:36:56.731Z,24.28
2018-08-04T01:39:26.433Z,24.17
2018-08-04T01:41:56.547Z,24.15
2018-08-04T01:44:26.711Z,24.11
2018-08-04T01:52:07.670Z,24.18
2018-08-04T01:54:37.509Z,24.15
2018-08-04T01:57:07.375Z,24.10
2018-08-04T01:59:37.251Z,24.17
2018-08-04T02:02:07.695Z,24.07
2018-08-04T02:04:37.171Z,23.91
2018-08-04T02:07:07.324Z,23.96
2018-08-04T02:09:37.099Z,24.04
2018-08-04T02:12:06.815Z,23.94
2018-08-04T02:14:36.605Z,24.02
2018-08-04T02:17:07.040Z,23.94
2018-08-04T02:19:36.724Z,23.84
2018-08-04T02:22:06.428Z,23.95
2018-08-04T02:24:36.254Z,23.79
2018-08-04T02:27:06.032Z,23.67
2018-08-04T02:29:35.755Z,23.80
2018-08-04T02:32:06.806Z,23.79
2018-08-04T02:34:36.622Z,23.63
2018-08-04T02:37:06.676Z,23.64
2018-08-04T02:39:36.481Z,23.81
2018-08-04T02:42:06.322Z,23.92
2018-08-04T02:44:36.017Z,23.79
2018-08-04T02:47:05.726Z,23.78
2018-08-04T02:49:36.541Z,23.72
2018-08-04T02:52:06.461Z,23.81
2018-08-04T02:54:36.437Z,23.83
2018-08-04T02:57:06.252Z,23.73
2018-08-04T02:59:36.071Z,23.84
2018-08-04T03:02:05.766Z,23.87
2018-08-04T03:04:35.523Z,24.05
2018-08-04T03:07:05.214Z,23.85
2018-08-04T03:09:35.012Z,23.86
2018-08-04T03:12:04.365Z,23.84
2018-08-04T03:14:34.083Z,23.60
2018-08-04T03:17:03.811Z,23.64
2018-08-04T03:19:34.093Z,23.56
2018-08-04T03:24:40.920Z,23.47
2018-08-04T03:27:11.483Z,23.49
2018-08-04T03:29:42.823Z,23.65
2018-08-04T03:32:12.991Z,23.63
2018-08-04T03:34:44.477Z,23.20
2018-08-04T03:37:14.432Z,23.21
2018-08-04T03:39:45.879Z,23.16
2018-08-04T03:42:17.184Z,23.22
2018-08-04T03:44:48.339Z,23.49
2018-08-04T03:47:19.968Z,23.55
2018-08-04T03:49:50.975Z,23.90
2018-08-04T03:52:22.427Z,23.87
2018-08-04T03:54:52.483Z,23.56
2018-08-04T03:57:22.356Z,23.50
2018-08-04T03:59:52.221Z,23.72
2018-08-04T04:02:23.643Z,23.66
2018-08-04T04:04:53.434Z,23.74
2018-08-04T04:07:23.400Z,23.83
2018-08-04T04:09:54.160Z,23.63
2018-08-04T04:17:53.500Z,23.70
2018-08-04T04:20:25.585Z,24.12
2018-08-04T04:22:56.889Z,24.50
2018-08-04T04:25:29.135Z,24.55
2018-08-04T04:27:59.497Z,24.75
2018-08-04T04:30:29.759Z,24.53
2018-08-04T04:33:01.236Z,24.39
2018-08-04T04:35:31.889Z,24.57
2018-08-04T04:38:02.333Z,24.61
2018-08-04T04:40:32.736Z,24.66
2018-08-04T04:43:04.173Z,24.47
2018-08-04T04:45:34.300Z,24.50
2018-08-04T04:50:41.002Z,24.88
2018-08-04T04:53:10.805Z,24.95
2018-08-04T04:58:19.000Z,25.37
2018-08-04T05:00:48.945Z,25.42
2018-08-04T05:03:20.465Z,25.54
2018-08-04T05:05:50.515Z,25.53
2018-08-04T05:08:20.410Z,25.66
2018-08-04T05:10:50.280Z,25.92
2018-08-04T05:13:20.306Z,26.11
2018-08-04T05:15:50.074Z,26.07
2018-08-04T05:18:20.671Z,26.09
2018-08-04T05:20:52.120Z,26.32
2018-08-04T05:23:22.772Z,26.48
2018-08-04T05:25:52.697Z,26.56
2018-08-04T05:28:23.620Z,26.41
2018-08-04T05:30:53.381Z,26.56
2018-08-04T05:33:23.316Z,26.99
2018-08-04T05:35:55.040Z,27.31
2018-08-04T05:38:27.643Z,27.70
2018-08-04T05:40:57.952Z,27.74
2018-08-04T05:43:27.718Z,27.84
2018-08-04T05:45:59.029Z,27.90
2018-08-04T05:48:28.835Z,28.08
2018-08-04T05:50:59.564Z,28.32
2018-08-04T05:53:29.886Z,28.49
2018-08-04T05:55:59.934Z,28.54
2018-08-04T05:58:30.200Z,28.56
2018-08-04T06:01:00.043Z,28.69
2018-08-04T06:03:30.011Z,28.91
2018-08-04T06:05:59.827Z,28.82
2018-08-04T06:08:30.351Z,29.15
2018-08-04T06:13:35.920Z,28.82
2018-08-04T06:16:06.823Z,29.15
2018-08-04T06:29:01.816Z,29.49
2018-08-04T06:31:34.182Z,29.46
2018-08-04T06:34:05.983Z,29.49
2018-08-04T06:36:37.585Z,29.43
2018-08-04T06:39:11.685Z,29.68
2018-08-04T06:41:44.993Z,29.62
2018-08-04T06:44:18.018Z,29.58
2018-08-04T06:46:49.107Z,29.64
2018-08-04T06:49:19.574Z,30.00
2018-08-04T06:51:49.689Z,30.08
2018-08-04T06:54:19.520Z,30.13
2018-08-04T06:56:51.183Z,30.07
2018-08-04T06:59:24.847Z,30.03
2018-08-04T07:01:54.692Z,30.13
2018-08-04T07:07:02.400Z,30.13
2018-08-04T07:09:32.086Z,30.33
2018-08-04T07:14:38.739Z,30.41
2018-08-04T07:17:09.220Z,30.66
2018-08-04T07:19:41.061Z,30.55
2018-08-04T07:22:11.570Z,30.62
2018-08-04T07:24:42.248Z,30.71
2018-08-04T07:27:12.557Z,31.03
2018-08-04T07:29:42.719Z,30.98
2018-08-04T07:32:13.121Z,30.98
2018-08-04T07:34:43.558Z,31.31
2018-08-04T07:37:15.937Z,31.09
2018-08-04T07:39:45.770Z,31.30
2018-08-04T07:42:15.168Z,31.03
2018-08-04T07:44:46.129Z,31.00
2018-08-04T07:47:17.560Z,31.08
2018-08-04T07:49:47.209Z,31.18
2018-08-04T07:52:18.389Z,31.35
2018-08-04T07:54:48.317Z,31.37
2018-08-04T07:57:19.073Z,31.45
2018-08-04T07:59:48.505Z,31.49
2018-08-04T08:02:20.931Z,31.38
2018-08-04T08:04:50.669Z,31.49
2018-08-04T08:07:23.974Z,31.70
2018-08-04T08:09:54.409Z,31.61
2018-08-04T08:12:25.694Z,31.58
2018-08-04T08:14:55.398Z,32.14
2018-08-04T08:17:26.145Z,32.50
2018-08-04T08:19:58.603Z,32.46
2018-08-04T08:22:42.240Z,31.99
2018-08-04T08:25:13.037Z,32.12
2018-08-04T08:27:42.834Z,32.15
2018-08-04T08:30:14.692Z,32.38
2018-08-04T08:32:44.543Z,32.43
2018-08-04T08:35:14.326Z,32.35
2018-08-04T08:37:43.754Z,32.74
2018-08-04T08:40:13.431Z,32.85
2018-08-04T08:42:43.113Z,33.04
2018-08-04T08:45:12.916Z,33.16
2018-08-04T08:47:42.691Z,32.90
2018-08-04T08:50:13.451Z,33.27
2018-08-04T08:52:43.275Z,32.99
2018-08-04T08:55:13.072Z,32.99
2018-08-04T08:57:46.764Z,33.02
2018-08-04T09:00:17.532Z,33.28
2018-08-04T09:05:22.941Z,33.91
2018-08-04T09:07:52.680Z,34.25
2018-08-04T09:10:23.756Z,34.07
2018-08-04T09:12:53.675Z,33.77
2018-08-04T09:15:23.435Z,33.90
2018-08-04T09:17:53.203Z,34.01
2018-08-04T09:20:22.848Z,34.06
2018-08-04T09:22:52.684Z,34.14
2018-08-04T09:25:22.700Z,34.26
2018-08-04T09:27:52.455Z,34.02
2018-08-04T09:30:22.176Z,34.19
2018-08-04T09:32:51.973Z,34.28
2018-08-04T09:35:21.735Z,34.32
2018-08-04T09:37:51.531Z,34.26
2018-08-04T09:40:21.413Z,33.96
2018-08-04T09:42:52.984Z,33.99
2018-08-04T09:45:22.856Z,34.02
2018-08-04T09:47:52.589Z,33.99
2018-08-04T09:50:22.371Z,33.51
2018-08-04T09:52:52.551Z,33.74
2018-08-04T09:55:22.252Z,34.25
2018-08-04T09:57:52.046Z,34.49
2018-08-04T10:00:31.962Z,34.67
2018-08-04T10:03:01.643Z,34.92
2018-08-04T10:05:31.053Z,34.66
2018-08-04T10:08:02.590Z,34.66
2018-08-04T10:10:32.439Z,34.69
2018-08-04T10:13:02.305Z,35.24
2018-08-04T10:15:32.033Z,35.19
2018-08-04T10:18:01.732Z,35.19
2018-08-04T10:20:36.096Z,35.41
2018-08-04T10:23:06.323Z,35.67
2018-08-04T10:30:51.826Z,35.86
2018-08-04T10:33:21.467Z,36.00
2018-08-04T10:35:51.286Z,36.11
2018-08-04T10:38:22.283Z,36.05
2018-08-04T10:40:52.856Z,36.02
2018-08-04T10:43:23.861Z,35.87
2018-08-04T10:45:53.551Z,36.12
2018-08-04T10:48:23.894Z,36.28
2018-08-04T10:50:53.298Z,36.64
2018-08-04T10:53:23.552Z,36.06
2018-08-04T10:55:53.395Z,36.11
2018-08-04T10:58:23.685Z,35.92
2018-08-04T11:00:53.574Z,36.27
2018-08-04T11:03:23.308Z,35.93
2018-08-04T11:05:53.137Z,35.86
2018-08-04T11:08:22.864Z,36.09
2018-08-04T11:10:52.694Z,36.41
2018-08-04T11:13:22.565Z,36.37
2018-08-04T11:15:52.288Z,36.48
2018-08-04T11:18:22.164Z,36.22
2018-08-04T11:20:51.543Z,36.50
2018-08-04T11:23:21.219Z,36.64
2018-08-04T11:25:50.936Z,36.73
2018-08-04T11:28:20.647Z,36.54
2018-08-04T11:30:50.421Z,36.66
2018-08-04T11:33:22.014Z,36.98
2018-08-04T11:35:52.871Z,37.39
2018-08-04T11:38:22.845Z,36.87
2018-08-04T11:40:52.707Z,36.91
2018-08-04T11:43:22.431Z,37.20
2018-08-04T11:53:38.428Z,38.11
2018-08-04T11:56:08.183Z,37.72
2018-08-04T11:58:38.147Z,37.19
2018-08-04T12:01:07.876Z,37.38
2018-08-04T12:03:37.620Z,37.88
2018-08-04T12:08:44.820Z,37.40
2018-08-04T12:11:14.516Z,37.48
2018-08-04T12:13:44.305Z,37.76
2018-08-04T12:16:14.084Z,37.91
2018-08-04T12:18:44.727Z,37.72
2018-08-04T12:21:14.766Z,37.73
2018-08-04T12:23:45.089Z,37.95
2018-08-04T12:26:14.937Z,37.84
2018-08-04T12:28:44.683Z,37.33
2018-08-04T12:33:50.340Z,36.66
2018-08-04T12:36:20.038Z,36.91
2018-08-04T12:38:49.721Z,36.58
2018-08-04T12:41:19.543Z,36.67
2018-08-04T12:43:49.257Z,36.94
2018-08-04T12:46:19.214Z,36.65
2018-08-04T12:48:49.118Z,36.84
2018-08-04T12:51:18.931Z,37.31
2018-08-04T12:53:58.366Z,36.89
2018-08-04T12:56:28.080Z,37.39
2018-08-04T12:58:57.791Z,37.99
2018-08-04T13:01:28.656Z,37.78
2018-08-04T13:03:58.414Z,37.33
2018-08-04T13:06:28.136Z,35.95
2018-08-04T13:08:57.795Z,35.47
2018-08-04T13:11:27.595Z,34.98
2018-08-04T13:13:57.301Z,34.62
2018-08-04T13:16:26.973Z,34.37
2018-08-04T13:18:56.624Z,34.74
2018-08-04T13:21:26.307Z,35.19
2018-08-04T13:23:56.785Z,35.72
2018-08-04T13:26:26.592Z,35.75
2018-08-04T13:28:56.420Z,35.78
2018-08-04T13:31:26.243Z,35.92
2018-08-04T13:33:55.987Z,36.25
2018-08-04T13:36:25.706Z,36.31
2018-08-04T13:38:55.453Z,35.88
2018-08-04T13:41:25.164Z,35.60
2018-08-04T13:43:55.319Z,36.11
2018-08-04T13:46:25.223Z,36.22
2018-08-04T13:48:55.215Z,36.62
2018-08-04T13:51:24.910Z,36.63
2018-08-04T13:53:54.755Z,36.25
2018-08-04T13:56:24.585Z,36.04
2018-08-04T13:58:54.310Z,36.42
2018-08-04T14:01:24.101Z,35.75
2018-08-04T14:03:53.851Z,36.53
2018-08-04T14:06:23.668Z,37.31
2018-08-04T14:08:53.636Z,37.42
2018-08-04T14:11:23.503Z,37.75
2018-08-04T14:13:53.208Z,37.70
2018-08-04T14:16:23.297Z,37.43
2018-08-04T14:18:53.274Z,37.06
2018-08-04T14:21:23.133Z,37.30
2018-08-04T14:23:53.089Z,36.95
2018-08-04T14:26:22.812Z,36.61
2018-08-04T14:28:52.753Z,36.95
2018-08-04T14:31:22.702Z,36.84
2018-08-04T14:33:52.846Z,36.71
2018-08-04T14:36:23.092Z,36.67
2018-08-04T14:38:52.901Z,36.81
2018-08-04T14:41:22.474Z,36.91
2018-08-04T14:43:52.340Z,37.04
2018-08-04T14:46:22.291Z,37.22
2018-08-04T14:48:52.288Z,37.19
2018-08-04T14:51:22.065Z,37.05
2018-08-04T14:53:51.467Z,37.07
2018-08-04T14:56:21.349Z,37.62
2018-08-04T14:58:51.769Z,37.41
2018-08-04T15:01:22.053Z,38.01
2018-08-04T15:03:51.938Z,37.84
2018-08-04T15:06:21.785Z,37.30
2018-08-04T15:08:51.267Z,37.22
2018-08-04T15:11:21.128Z,37.35
2018-08-04T15:13:51.005Z,37.11
2018-08-04T15:16:20.789Z,37.31
2018-08-04T15:18:51.474Z,37.31
2018-08-04T15:21:21.709Z,37.43
2018-08-04T15:23:51.496Z,37.66
2018-08-04T15:26:21.314Z,37.90
2018-08-04T15:28:51.572Z,38.07
2018-08-04T15:31:21.297Z,38.14
2018-08-04T15:33:51.068Z,37.92
2018-08-04T15:36:21.240Z,37.75
2018-08-04T15:38:51.058Z,37.53
2018-08-04T15:41:20.796Z,37.43
2018-08-04T15:43:50.352Z,37.19
2018-08-04T15:46:20.048Z,36.88
2018-08-04T15:48:49.910Z,36.92
2018-08-04T15:51:19.694Z,36.81
2018-08-04T15:53:49.486Z,36.68
2018-08-04T15:56:19.379Z,36.94
2018-08-04T15:58:49.163Z,37.12
2018-08-04T16:01:18.884Z,37.07
2018-08-04T16:03:48.733Z,36.94
2018-08-04T16:06:18.237Z,37.08
2018-08-04T16:08:47.924Z,37.37
2018-08-04T16:11:18.453Z,37.59
2018-08-04T16:13:48.324Z,37.39
2018-08-04T16:16:18.188Z,36.88
2018-08-04T16:18:47.692Z,36.64
2018-08-04T16:21:17.318Z,36.85
2018-08-04T16:23:47.086Z,36.85
2018-08-04T16:26:16.775Z,36.81
2018-08-04T16:28:46.508Z,36.68
2018-08-04T16:31:16.400Z,36.40
2018-08-04T16:33:46.168Z,36.43
2018-08-04T16:36:17.121Z,36.25
2018-08-04T16:38:47.099Z,35.95
2018-08-04T16:41:16.832Z,36.37
2018-08-04T16:43:46.598Z,36.14
2018-08-04T16:46:16.505Z,35.74
2018-08-04T16:48:46.459Z,35.96
2018-08-04T16:51:16.141Z,36.01
2018-08-04T16:53:46.399Z,36.09
2018-08-04T16:56:16.292Z,36.29
2018-08-04T16:58:46.360Z,36.18
2018-08-04T17:01:16.339Z,36.17
2018-08-04T17:03:46.479Z,36.56
2018-08-04T17:06:16.495Z,36.53
2018-08-04T17:08:53.176Z,36.41
2018-08-04T17:11:22.975Z,36.63
2018-08-04T17:13:53.142Z,36.81
2018-08-04T17:16:22.860Z,37.24
2018-08-04T17:18:52.875Z,36.62
2018-08-04T17:21:22.680Z,35.66
2018-08-04T17:23:52.957Z,35.29
2018-08-04T17:26:22.676Z,34.98
2018-08-04T17:28:53.288Z,34.76
2018-08-04T17:31:23.181Z,34.58
2018-08-04T17:33:53.144Z,34.53
2018-08-04T17:36:24.160Z,34.25
2018-08-04T17:38:54.601Z,34.15
2018-08-04T17:41:24.413Z,34.03
2018-08-04T17:43:54.200Z,34.03
2018-08-04T17:46:24.150Z,34.07
2018-08-04T17:48:54.168Z,33.89
2018-08-04T17:51:24.446Z,33.72
2018-08-04T17:53:54.362Z,33.69
2018-08-04T17:56:24.058Z,33.70
2018-08-04T17:58:54.657Z,33.68
2018-08-04T18:01:24.080Z,33.87
2018-08-04T18:03:54.233Z,33.73
2018-08-04T18:06:24.255Z,33.55
2018-08-04T18:08:54.530Z,33.73
2018-08-04T18:11:24.409Z,33.22
2018-08-04T18:13:54.216Z,33.09
2018-08-04T18:16:24.179Z,32.96
2018-08-04T18:18:54.470Z,32.75
2018-08-04T18:21:25.247Z,32.58
2018-08-04T18:23:56.224Z,32.28
2018-08-04T18:26:26.076Z,32.38
2018-08-04T18:28:55.779Z,32.25
2018-08-04T18:31:32.459Z,32.10
2018-08-04T18:34:05.028Z,32.04
2018-08-04T18:36:34.887Z,31.92
2018-08-04T18:39:06.944Z,31.85
2018-08-04T18:41:36.722Z,31.72
2018-08-04T18:44:07.183Z,31.68
2018-08-04T18:46:37.719Z,31.64
2018-08-04T18:49:08.859Z,31.53
2018-08-04T18:51:40.086Z,31.47
2018-08-04T18:54:10.279Z,31.27
2018-08-04T18:56:40.027Z,31.22
2018-08-04T18:59:09.819Z,31.11
2018-08-04T19:01:39.865Z,31.04
2018-08-04T19:04:09.721Z,31.11
2018-08-04T19:06:39.431Z,30.97
2018-08-04T19:11:47.027Z,30.61
2018-08-04T19:14:16.774Z,30.54
2018-08-04T19:16:47.204Z,30.48
2018-08-04T19:19:17.104Z,30.70
2018-08-04T19:21:48.440Z,30.65
2018-08-04T19:24:18.166Z,30.62
2018-08-04T19:26:47.817Z,30.55
2018-08-04T19:29:18.096Z,30.49
2018-08-04T19:31:51.068Z,30.32
2018-08-04T19:34:20.943Z,30.18
2018-08-04T19:36:51.589Z,30.12
2018-08-04T19:39:22.372Z,30.00
2018-08-04T19:41:52.151Z,29.82
2018-08-04T19:44:21.848Z,29.69
2018-08-04T19:46:51.640Z,29.70
2018-08-04T19:49:22.450Z,29.72
2018-08-04T19:51:52.314Z,29.65
2018-08-04T19:54:22.060Z,29.55
2018-08-04T19:56:51.838Z,29.45
2018-08-04T19:59:21.264Z,29.30
2018-08-04T20:01:51.140Z,29.20
2018-08-04T20:04:20.949Z,29.11
2018-08-04T20:06:50.660Z,29.15
2018-08-04T20:09:20.597Z,29.13
2018-08-04T20:11:51.280Z,28.95
2018-08-04T20:14:21.095Z,28.71
2018-08-04T20:16:51.184Z,28.79
2018-08-04T20:19:21.158Z,28.74
2018-08-04T20:21:50.896Z,28.68
2018-08-04T20:24:20.666Z,28.79
2018-08-04T20:26:50.591Z,28.65
2018-08-04T20:29:20.540Z,28.80
2018-08-04T20:31:50.408Z,29.07
2018-08-04T20:34:20.136Z,28.84
2018-08-04T20:39:26.176Z,28.43
2018-08-04T20:41:55.988Z,28.28
2018-08-04T20:44:25.743Z,28.27
2018-08-04T20:46:55.758Z,28.18
2018-08-04T20:49:25.460Z,28.13
2018-08-04T20:51:56.589Z,28.25
2018-08-04T20:54:29.763Z,28.25
2018-08-04T20:57:00.538Z,28.12
2018-08-04T20:59:30.318Z,28.09
2018-08-04T21:02:01.484Z,28.02
2018-08-04T21:04:32.504Z,28.16
2018-08-04T21:07:02.932Z,28.24
2018-08-04T21:12:12.440Z,27.96
2018-08-04T21:14:43.453Z,27.87
2018-08-04T21:17:13.802Z,27.81
2018-08-04T21:19:44.708Z,27.80
2018-08-04T21:22:15.560Z,27.77
2018-08-04T21:24:49.714Z,27.72
2018-08-04T21:27:22.699Z,27.62
2018-08-04T21:29:54.182Z,27.54
2018-08-04T21:32:24.529Z,27.56
2018-08-04T21:34:56.370Z,27.52
2018-08-04T21:37:27.699Z,27.43
2018-08-04T21:39:57.425Z,27.37
2018-08-04T21:42:27.829Z,27.16
2018-08-04T21:44:58.455Z,27.20
2018-08-04T21:47:32.230Z,27.27
2018-08-04T21:50:03.059Z,27.33
2018-08-04T21:55:10.531Z,27.05
2018-08-04T21:57:42.729Z,27.06
2018-08-04T22:00:15.737Z,27.03
2018-08-04T22:02:54.634Z,27.03
2018-08-04T22:05:24.938Z,26.78
2018-08-04T22:08:07.688Z,26.88
2018-08-04T22:13:13.182Z,26.75
2018-08-04T22:15:43.778Z,26.56
2018-08-04T22:18:13.591Z,26.50
2018-08-04T22:20:43.361Z,26.56
2018-08-04T22:23:12.795Z,26.66
2018-08-04T22:25:43.135Z,26.62
2018-08-04T22:28:13.146Z,26.69
2018-08-04T22:30:42.949Z,26.73
2018-08-04T22:33:14.319Z,26.69
2018-08-04T22:35:44.235Z,26.75
2018-08-04T22:38:13.968Z,26.67
2018-08-04T22:40:43.826Z,26.60
2018-08-04T22:43:14.155Z,26.39
2018-08-04T22:46:09.111Z,26.43
2018-08-04T22:48:39.734Z,26.43
2018-08-04T22:51:09.522Z,26.37
2018-08-04T22:53:39.284Z,26.34
2018-08-04T22:56:09.301Z,26.31
2018-08-04T22:58:40.254Z,26.30
2018-08-04T23:01:09.933Z,26.27
2018-08-04T23:03:39.769Z,26.18
2018-08-04T23:06:09.639Z,26.20
2018-08-04T23:08:40.987Z,26.09
2018-08-04T23:11:12.139Z,25.85
2018-08-04T23:13:41.891Z,25.84
2018-08-04T23:16:11.653Z,25.90
2018-08-04T23:18:42.065Z,25.83
2018-08-04T23:21:13.847Z,25.85
2018-08-04T23:23:43.692Z,25.80
2018-08-04T23:26:13.606Z,25.80
2018-08-04T23:28:43.295Z,25.73
2018-08-04T23:31:18.058Z,25.77
2018-08-04T23:33:47.808Z,25.71
2018-08-04T23:36:19.340Z,25.79
2018-08-04T23:38:48.785Z,25.75
2018-08-04T23:41:20.013Z,25.62
2018-08-04T23:43:50.410Z,25.74
2018-08-04T23:46:20.934Z,25.72
2018-08-04T23:48:52.869Z,25.70
2018-08-04T23:51:23.312Z,25.55
2018-08-04T23:53:54.278Z,25.51
2018-08-04T23:56:25.180Z,25.42
2018-08-04T23:58:55.084Z,25.44
